sensor_id;sensor_type;location;lat;lon;timestamp;P1;durP1;ratioP1;P2;durP2;ratioP2
14400;SDS011;7285;50.894;5.462;2024-03-29T00:01:50;0.80;;;0.80;;
14400;SDS011;7285;50.894;5.462;2024-03-29T00:04:17;0.80;;;0.80;;
14400;SDS011;7285;50.894;5.462;2024-03-29T00:06:43;0.90;;;0.90;;
14400;SDS011;7285;50.894;5.462;2024-03-29T00:09:09;0.80;;;0.80;;
14400;SDS011;7285;50.894;5.462;2024-03-29T00:11:35;0.90;;;0.90;;
14400;SDS011;7285;50.894;5.462;2024-03-29T00:14:01;0.90;;;0.90;;
14400;SDS011;7285;50.894;5.462;2024-03-29T00:16:27;1.00;;;1.00;;
14400;SDS011;7285;50.894;5.462;2024-03-29T00:18:53;0.83;;;0.83;;
14400;SDS011;7285;50.894;5.462;2024-03-29T00:21:21;0.80;;;0.80;;
14400;SDS011;7285;50.894;5.462;2024-03-29T00:23:47;0.90;;;0.90;;
14400;SDS011;7285;50.894;5.462;2024-03-29T00:26:13;1.00;;;1.00;;
14400;SDS011;7285;50.894;5.462;2024-03-29T00:28:39;0.90;;;0.90;;
14400;SDS011;7285;50.894;5.462;2024-03-29T00:31:05;0.90;;;0.90;;
14400;SDS011;7285;50.894;5.462;2024-03-29T00:33:31;1.57;;;1.57;;
14400;SDS011;7285;50.894;5.462;2024-03-29T00:35:57;0.80;;;0.80;;
14400;SDS011;7285;50.894;5.462;2024-03-29T00:38:24;0.90;;;0.90;;
14400;SDS011;7285;50.894;5.462;2024-03-29T00:40:50;0.80;;;0.80;;
14400;SDS011;7285;50.894;5.462;2024-03-29T00:43:16;0.80;;;0.80;;
14400;SDS011;7285;50.894;5.462;2024-03-29T00:45:43;0.70;;;0.70;;
14400;SDS011;7285;50.894;5.462;2024-03-29T00:48:09;0.90;;;0.90;;
14400;SDS011;7285;50.894;5.462;2024-03-29T00:50:35;0.80;;;0.80;;
14400;SDS011;7285;50.894;5.462;2024-03-29T00:53:02;0.80;;;0.80;;
14400;SDS011;7285;50.894;5.462;2024-03-29T00:55:29;0.70;;;0.70;;
14400;SDS011;7285;50.894;5.462;2024-03-29T00:57:55;0.80;;;0.80;;
14400;SDS011;7285;50.894;5.462;2024-03-29T01:00:21;0.70;;;0.70;;
14400;SDS011;7285;50.894;5.462;2024-03-29T01:02:47;0.90;;;0.90;;
14400;SDS011;7285;50.894;5.462;2024-03-29T01:05:13;1.10;;;1.10;;
14400;SDS011;7285;50.894;5.462;2024-03-29T01:07:40;0.90;;;0.90;;
14400;SDS011;7285;50.894;5.462;2024-03-29T01:10:06;1.10;;;1.10;;
14400;SDS011;7285;50.894;5.462;2024-03-29T01:12:35;1.00;;;1.00;;
14400;SDS011;7285;50.894;5.462;2024-03-29T01:15:01;1.13;;;1.13;;
14400;SDS011;7285;50.894;5.462;2024-03-29T01:17:28;0.80;;;0.80;;
14400;SDS011;7285;50.894;5.462;2024-03-29T01:19:54;0.80;;;0.80;;
14400;SDS011;7285;50.894;5.462;2024-03-29T01:22:20;0.80;;;0.80;;
14400;SDS011;7285;50.894;5.462;2024-03-29T01:24:46;1.10;;;1.10;;
14400;SDS011;7285;50.894;5.462;2024-03-29T01:27:12;0.80;;;0.80;;
14400;SDS011;7285;50.894;5.462;2024-03-29T01:29:40;0.90;;;0.90;;
14400;SDS011;7285;50.894;5.462;2024-03-29T01:32:06;0.80;;;0.80;;
14400;SDS011;7285;50.894;5.462;2024-03-29T01:34:32;0.90;;;0.90;;
14400;SDS011;7285;50.894;5.462;2024-03-29T01:36:58;1.03;;;1.03;;
14400;SDS011;7285;50.894;5.462;2024-03-29T01:39:24;1.33;;;1.23;;
14400;SDS011;7285;50.894;5.462;2024-03-29T01:41:50;0.70;;;0.70;;
14400;SDS011;7285;50.894;5.462;2024-03-29T01:44:16;1.00;;;1.00;;
14400;SDS011;7285;50.894;5.462;2024-03-29T01:46:45;0.90;;;0.90;;
14400;SDS011;7285;50.894;5.462;2024-03-29T01:49:13;0.90;;;0.90;;
14400;SDS011;7285;50.894;5.462;2024-03-29T01:51:40;1.00;;;1.00;;
14400;SDS011;7285;50.894;5.462;2024-03-29T01:54:09;0.80;;;0.80;;
14400;SDS011;7285;50.894;5.462;2024-03-29T01:56:36;1.10;;;1.10;;
14400;SDS011;7285;50.894;5.462;2024-03-29T01:59:05;0.90;;;0.90;;
14400;SDS011;7285;50.894;5.462;2024-03-29T02:01:38;0.70;;;0.70;;
14400;SDS011;7285;50.894;5.462;2024-03-29T02:04:08;0.80;;;0.80;;
14400;SDS011;7285;50.894;5.462;2024-03-29T02:06:36;0.80;;;0.80;;
14400;SDS011;7285;50.894;5.462;2024-03-29T02:09:04;0.77;;;0.77;;
14400;SDS011;7285;50.894;5.462;2024-03-29T02:11:30;0.90;;;0.90;;
14400;SDS011;7285;50.894;5.462;2024-03-29T02:13:58;1.40;;;0.80;;
14400;SDS011;7285;50.894;5.462;2024-03-29T02:16:25;0.90;;;0.90;;
14400;SDS011;7285;50.894;5.462;2024-03-29T02:18:51;0.90;;;0.90;;
14400;SDS011;7285;50.894;5.462;2024-03-29T02:21:19;0.90;;;0.90;;
14400;SDS011;7285;50.894;5.462;2024-03-29T02:23:46;0.73;;;0.73;;
14400;SDS011;7285;50.894;5.462;2024-03-29T02:26:17;0.90;;;0.90;;
14400;SDS011;7285;50.894;5.462;2024-03-29T02:28:44;0.90;;;0.90;;
14400;SDS011;7285;50.894;5.462;2024-03-29T02:31:11;1.10;;;1.10;;
14400;SDS011;7285;50.894;5.462;2024-03-29T02:33:38;1.17;;;0.93;;
14400;SDS011;7285;50.894;5.462;2024-03-29T02:36:05;1.30;;;1.30;;
14400;SDS011;7285;50.894;5.462;2024-03-29T02:38:33;0.90;;;0.90;;
14400;SDS011;7285;50.894;5.462;2024-03-29T02:41:00;0.90;;;0.90;;
14400;SDS011;7285;50.894;5.462;2024-03-29T02:43:28;0.90;;;0.90;;
14400;SDS011;7285;50.894;5.462;2024-03-29T02:45:55;0.90;;;0.90;;
14400;SDS011;7285;50.894;5.462;2024-03-29T02:48:22;0.73;;;0.73;;
14400;SDS011;7285;50.894;5.462;2024-03-29T02:50:48;0.90;;;0.90;;
14400;SDS011;7285;50.894;5.462;2024-03-29T02:53:15;0.80;;;0.80;;
14400;SDS011;7285;50.894;5.462;2024-03-29T02:55:41;0.90;;;0.90;;
14400;SDS011;7285;50.894;5.462;2024-03-29T02:58:08;0.90;;;0.90;;
14400;SDS011;7285;50.894;5.462;2024-03-29T03:00:36;0.90;;;0.90;;
14400;SDS011;7285;50.894;5.462;2024-03-29T03:03:02;0.80;;;0.80;;
14400;SDS011;7285;50.894;5.462;2024-03-29T03:05:29;0.77;;;0.77;;
14400;SDS011;7285;50.894;5.462;2024-03-29T03:07:55;1.00;;;1.00;;
14400;SDS011;7285;50.894;5.462;2024-03-29T03:10:44;0.87;;;0.87;;
14400;SDS011;7285;50.894;5.462;2024-03-29T03:13:26;0.80;;;0.80;;
14400;SDS011;7285;50.894;5.462;2024-03-29T03:15:55;0.80;;;0.80;;
14400;SDS011;7285;50.894;5.462;2024-03-29T03:18:22;0.90;;;0.90;;
14400;SDS011;7285;50.894;5.462;2024-03-29T03:20:51;0.63;;;0.63;;
14400;SDS011;7285;50.894;5.462;2024-03-29T03:23:19;1.10;;;1.10;;
14400;SDS011;7285;50.894;5.462;2024-03-29T03:25:46;0.83;;;0.83;;
14400;SDS011;7285;50.894;5.462;2024-03-29T03:28:19;1.00;;;1.00;;
14400;SDS011;7285;50.894;5.462;2024-03-29T03:30:46;0.80;;;0.80;;
14400;SDS011;7285;50.894;5.462;2024-03-29T03:33:14;0.90;;;0.90;;
14400;SDS011;7285;50.894;5.462;2024-03-29T03:35:41;0.97;;;0.97;;
14400;SDS011;7285;50.894;5.462;2024-03-29T03:38:07;0.90;;;0.90;;
14400;SDS011;7285;50.894;5.462;2024-03-29T03:40:34;0.90;;;0.90;;
14400;SDS011;7285;50.894;5.462;2024-03-29T03:43:01;0.90;;;0.90;;
14400;SDS011;7285;50.894;5.462;2024-03-29T03:45:28;0.90;;;0.90;;
14400;SDS011;7285;50.894;5.462;2024-03-29T03:47:58;0.80;;;0.80;;
14400;SDS011;7285;50.894;5.462;2024-03-29T03:50:27;1.07;;;0.83;;
14400;SDS011;7285;50.894;5.462;2024-03-29T03:52:53;0.90;;;0.90;;
14400;SDS011;7285;50.894;5.462;2024-03-29T03:55:20;0.90;;;0.90;;
14400;SDS011;7285;50.894;5.462;2024-03-29T03:57:46;0.77;;;0.77;;
14400;SDS011;7285;50.894;5.462;2024-03-29T04:00:13;0.90;;;0.90;;
14400;SDS011;7285;50.894;5.462;2024-03-29T04:02:39;0.80;;;0.80;;
14400;SDS011;7285;50.894;5.462;2024-03-29T04:05:08;1.10;;;1.10;;
14400;SDS011;7285;50.894;5.462;2024-03-29T04:07:35;0.63;;;0.63;;
14400;SDS011;7285;50.894;5.462;2024-03-29T04:10:02;0.90;;;0.90;;
14400;SDS011;7285;50.894;5.462;2024-03-29T04:12:28;1.00;;;1.00;;
14400;SDS011;7285;50.894;5.462;2024-03-29T04:14:55;1.03;;;1.03;;
14400;SDS011;7285;50.894;5.462;2024-03-29T04:17:22;1.23;;;1.23;;
14400;SDS011;7285;50.894;5.462;2024-03-29T04:19:49;0.80;;;0.80;;
14400;SDS011;7285;50.894;5.462;2024-03-29T04:22:15;0.80;;;0.80;;
14400;SDS011;7285;50.894;5.462;2024-03-29T04:24:44;0.60;;;0.60;;
14400;SDS011;7285;50.894;5.462;2024-03-29T04:27:10;0.90;;;0.90;;
14400;SDS011;7285;50.894;5.462;2024-03-29T04:29:37;0.90;;;0.90;;
14400;SDS011;7285;50.894;5.462;2024-03-29T04:32:03;0.90;;;0.90;;
14400;SDS011;7285;50.894;5.462;2024-03-29T04:34:30;0.80;;;0.80;;
14400;SDS011;7285;50.894;5.462;2024-03-29T04:36:56;0.80;;;0.80;;
14400;SDS011;7285;50.894;5.462;2024-03-29T04:39:23;0.90;;;0.90;;
14400;SDS011;7285;50.894;5.462;2024-03-29T04:41:52;0.70;;;0.70;;
14400;SDS011;7285;50.894;5.462;2024-03-29T04:44:23;0.90;;;0.90;;
14400;SDS011;7285;50.894;5.462;2024-03-29T04:46:50;0.80;;;0.80;;
14400;SDS011;7285;50.894;5.462;2024-03-29T04:49:18;0.83;;;0.83;;
14400;SDS011;7285;50.894;5.462;2024-03-29T04:51:55;0.70;;;0.70;;
14400;SDS011;7285;50.894;5.462;2024-03-29T04:54:22;0.70;;;0.70;;
14400;SDS011;7285;50.894;5.462;2024-03-29T04:56:49;0.90;;;0.90;;
14400;SDS011;7285;50.894;5.462;2024-03-29T04:59:17;0.90;;;0.90;;
14400;SDS011;7285;50.894;5.462;2024-03-29T05:01:46;0.90;;;0.90;;
14400;SDS011;7285;50.894;5.462;2024-03-29T05:04:15;0.73;;;0.73;;
14400;SDS011;7285;50.894;5.462;2024-03-29T05:06:44;0.90;;;0.90;;
14400;SDS011;7285;50.894;5.462;2024-03-29T05:09:11;4.93;;;1.10;;
14400;SDS011;7285;50.894;5.462;2024-03-29T05:11:38;0.80;;;0.80;;
14400;SDS011;7285;50.894;5.462;2024-03-29T05:14:05;0.73;;;0.73;;
14400;SDS011;7285;50.894;5.462;2024-03-29T05:16:33;0.90;;;0.90;;
14400;SDS011;7285;50.894;5.462;2024-03-29T05:19:00;1.00;;;1.00;;
14400;SDS011;7285;50.894;5.462;2024-03-29T05:21:27;0.93;;;0.93;;
14400;SDS011;7285;50.894;5.462;2024-03-29T05:23:54;1.10;;;1.10;;
14400;SDS011;7285;50.894;5.462;2024-03-29T05:26:21;1.03;;;1.03;;
14400;SDS011;7285;50.894;5.462;2024-03-29T05:28:49;0.80;;;0.80;;
14400;SDS011;7285;50.894;5.462;2024-03-29T05:31:15;0.80;;;0.80;;
14400;SDS011;7285;50.894;5.462;2024-03-29T05:33:45;0.90;;;0.90;;
14400;SDS011;7285;50.894;5.462;2024-03-29T05:36:12;0.73;;;0.73;;
14400;SDS011;7285;50.894;5.462;2024-03-29T05:38:39;0.87;;;0.87;;
14400;SDS011;7285;50.894;5.462;2024-03-29T05:41:07;0.83;;;0.83;;
14400;SDS011;7285;50.894;5.462;2024-03-29T05:43:34;0.80;;;0.80;;
14400;SDS011;7285;50.894;5.462;2024-03-29T05:46:01;0.90;;;0.90;;
14400;SDS011;7285;50.894;5.462;2024-03-29T05:48:28;0.80;;;0.80;;
14400;SDS011;7285;50.894;5.462;2024-03-29T05:50:57;0.87;;;0.87;;
14400;SDS011;7285;50.894;5.462;2024-03-29T05:53:24;1.10;;;1.10;;
14400;SDS011;7285;50.894;5.462;2024-03-29T05:55:51;1.10;;;1.10;;
14400;SDS011;7285;50.894;5.462;2024-03-29T05:58:18;0.87;;;0.87;;
14400;SDS011;7285;50.894;5.462;2024-03-29T06:00:46;0.80;;;0.80;;
14400;SDS011;7285;50.894;5.462;2024-03-29T06:03:14;0.87;;;0.87;;
14400;SDS011;7285;50.894;5.462;2024-03-29T06:05:41;1.07;;;1.07;;
14400;SDS011;7285;50.894;5.462;2024-03-29T06:08:09;1.17;;;1.17;;
14400;SDS011;7285;50.894;5.462;2024-03-29T06:10:36;0.70;;;0.70;;
14400;SDS011;7285;50.894;5.462;2024-03-29T06:13:03;0.83;;;0.83;;
14400;SDS011;7285;50.894;5.462;2024-03-29T06:15:35;1.20;;;1.20;;
14400;SDS011;7285;50.894;5.462;2024-03-29T06:18:19;0.80;;;0.80;;
14400;SDS011;7285;50.894;5.462;2024-03-29T06:20:47;1.00;;;1.00;;
14400;SDS011;7285;50.894;5.462;2024-03-29T06:23:15;1.20;;;1.20;;
14400;SDS011;7285;50.894;5.462;2024-03-29T06:25:42;0.70;;;0.70;;
14400;SDS011;7285;50.894;5.462;2024-03-29T06:28:10;0.87;;;0.87;;
14400;SDS011;7285;50.894;5.462;2024-03-29T06:30:37;1.00;;;1.00;;
14400;SDS011;7285;50.894;5.462;2024-03-29T06:33:06;0.80;;;0.80;;
14400;SDS011;7285;50.894;5.462;2024-03-29T06:35:33;0.90;;;0.90;;
14400;SDS011;7285;50.894;5.462;2024-03-29T06:38:01;0.87;;;0.87;;
14400;SDS011;7285;50.894;5.462;2024-03-29T06:40:29;0.83;;;0.83;;
14400;SDS011;7285;50.894;5.462;2024-03-29T06:42:56;0.63;;;0.63;;
14400;SDS011;7285;50.894;5.462;2024-03-29T06:45:24;1.10;;;1.10;;
14400;SDS011;7285;50.894;5.462;2024-03-29T06:47:51;0.80;;;0.80;;
14400;SDS011;7285;50.894;5.462;2024-03-29T06:50:18;0.90;;;0.90;;
14400;SDS011;7285;50.894;5.462;2024-03-29T06:52:45;0.80;;;0.80;;
14400;SDS011;7285;50.894;5.462;2024-03-29T06:55:12;0.83;;;0.83;;
14400;SDS011;7285;50.894;5.462;2024-03-29T06:57:41;1.00;;;1.00;;
14400;SDS011;7285;50.894;5.462;2024-03-29T07:00:10;0.97;;;0.97;;
14400;SDS011;7285;50.894;5.462;2024-03-29T07:02:38;0.70;;;0.70;;
14400;SDS011;7285;50.894;5.462;2024-03-29T07:05:05;1.50;;;1.50;;
14400;SDS011;7285;50.894;5.462;2024-03-29T07:07:32;1.50;;;1.30;;
14400;SDS011;7285;50.894;5.462;2024-03-29T07:09:59;0.90;;;0.90;;
14400;SDS011;7285;50.894;5.462;2024-03-29T07:12:26;0.80;;;0.80;;
14400;SDS011;7285;50.894;5.462;2024-03-29T07:14:55;0.70;;;0.70;;
14400;SDS011;7285;50.894;5.462;2024-03-29T07:17:22;0.77;;;0.77;;
14400;SDS011;7285;50.894;5.462;2024-03-29T07:19:49;0.90;;;0.90;;
14400;SDS011;7285;50.894;5.462;2024-03-29T07:22:16;0.80;;;0.80;;
14400;SDS011;7285;50.894;5.462;2024-03-29T07:24:43;1.10;;;1.10;;
14400;SDS011;7285;50.894;5.462;2024-03-29T07:27:09;0.83;;;0.83;;
14400;SDS011;7285;50.894;5.462;2024-03-29T07:29:37;0.90;;;0.90;;
14400;SDS011;7285;50.894;5.462;2024-03-29T07:32:06;1.00;;;1.00;;
14400;SDS011;7285;50.894;5.462;2024-03-29T07:34:34;1.00;;;1.00;;
14400;SDS011;7285;50.894;5.462;2024-03-29T07:37:01;0.90;;;0.90;;
14400;SDS011;7285;50.894;5.462;2024-03-29T07:39:28;0.93;;;0.93;;
14400;SDS011;7285;50.894;5.462;2024-03-29T07:41:55;1.03;;;1.03;;
14400;SDS011;7285;50.894;5.462;2024-03-29T07:44:22;0.90;;;0.90;;
14400;SDS011;7285;50.894;5.462;2024-03-29T07:46:49;1.00;;;1.00;;
14400;SDS011;7285;50.894;5.462;2024-03-29T07:49:17;1.00;;;1.00;;
14400;SDS011;7285;50.894;5.462;2024-03-29T07:51:46;0.90;;;0.90;;
14400;SDS011;7285;50.894;5.462;2024-03-29T07:54:13;0.80;;;0.80;;
14400;SDS011;7285;50.894;5.462;2024-03-29T07:56:40;0.90;;;0.90;;
14400;SDS011;7285;50.894;5.462;2024-03-29T07:59:07;0.80;;;0.80;;
14400;SDS011;7285;50.894;5.462;2024-03-29T08:01:34;0.80;;;0.80;;
14400;SDS011;7285;50.894;5.462;2024-03-29T08:04:01;0.90;;;0.90;;
14400;SDS011;7285;50.894;5.462;2024-03-29T08:06:30;0.70;;;0.70;;
14400;SDS011;7285;50.894;5.462;2024-03-29T08:08:59;0.77;;;0.77;;
14400;SDS011;7285;50.894;5.462;2024-03-29T08:11:26;0.83;;;0.83;;
14400;SDS011;7285;50.894;5.462;2024-03-29T08:13:53;0.80;;;0.80;;
14400;SDS011;7285;50.894;5.462;2024-03-29T08:16:20;1.00;;;1.00;;
14400;SDS011;7285;50.894;5.462;2024-03-29T08:18:48;0.80;;;0.80;;
14400;SDS011;7285;50.894;5.462;2024-03-29T08:21:15;1.20;;;1.20;;
14400;SDS011;7285;50.894;5.462;2024-03-29T08:23:44;0.87;;;0.87;;
14400;SDS011;7285;50.894;5.462;2024-03-29T08:26:12;0.93;;;0.93;;
14400;SDS011;7285;50.894;5.462;2024-03-29T08:28:40;0.80;;;0.80;;
14400;SDS011;7285;50.894;5.462;2024-03-29T08:31:07;0.67;;;0.67;;
14400;SDS011;7285;50.894;5.462;2024-03-29T08:33:34;0.83;;;0.83;;
14400;SDS011;7285;50.894;5.462;2024-03-29T08:36:04;1.27;;;0.87;;
14400;SDS011;7285;50.894;5.462;2024-03-29T08:38:31;0.70;;;0.70;;
14400;SDS011;7285;50.894;5.462;2024-03-29T08:41:00;0.73;;;0.73;;
14400;SDS011;7285;50.894;5.462;2024-03-29T08:43:27;0.60;;;0.60;;
14400;SDS011;7285;50.894;5.462;2024-03-29T08:45:54;0.60;;;0.60;;
14400;SDS011;7285;50.894;5.462;2024-03-29T08:48:22;1.00;;;0.90;;
14400;SDS011;7285;50.894;5.462;2024-03-29T08:50:49;0.70;;;0.70;;
14400;SDS011;7285;50.894;5.462;2024-03-29T08:53:17;0.60;;;0.60;;
14400;SDS011;7285;50.894;5.462;2024-03-29T08:55:45;0.63;;;0.63;;
14400;SDS011;7285;50.894;5.462;2024-03-29T08:58:14;0.60;;;0.60;;
14400;SDS011;7285;50.894;5.462;2024-03-29T09:00:42;0.70;;;0.70;;
14400;SDS011;7285;50.894;5.462;2024-03-29T09:03:09;0.87;;;0.80;;
14400;SDS011;7285;50.894;5.462;2024-03-29T09:05:36;0.67;;;0.67;;
14400;SDS011;7285;50.894;5.462;2024-03-29T09:08:04;0.80;;;0.80;;
14400;SDS011;7285;50.894;5.462;2024-03-29T09:10:31;0.60;;;0.60;;
14400;SDS011;7285;50.894;5.462;2024-03-29T09:12:58;0.67;;;0.67;;
14400;SDS011;7285;50.894;5.462;2024-03-29T09:15:26;0.60;;;0.60;;
14400;SDS011;7285;50.894;5.462;2024-03-29T09:17:53;0.63;;;0.60;;
14400;SDS011;7285;50.894;5.462;2024-03-29T09:20:20;0.60;;;0.60;;
14400;SDS011;7285;50.894;5.462;2024-03-29T09:22:49;0.63;;;0.63;;
14400;SDS011;7285;50.894;5.462;2024-03-29T09:25:17;9.97;;;1.43;;
14400;SDS011;7285;50.894;5.462;2024-03-29T09:27:45;0.60;;;0.60;;
14400;SDS011;7285;50.894;5.462;2024-03-29T09:30:13;0.80;;;0.80;;
14400;SDS011;7285;50.894;5.462;2024-03-29T09:32:42;0.70;;;0.70;;
14400;SDS011;7285;50.894;5.462;2024-03-29T09:35:09;0.60;;;0.60;;
14400;SDS011;7285;50.894;5.462;2024-03-29T09:37:36;0.80;;;0.80;;
14400;SDS011;7285;50.894;5.462;2024-03-29T09:40:05;0.67;;;0.67;;
14400;SDS011;7285;50.894;5.462;2024-03-29T09:42:33;0.60;;;0.60;;
14400;SDS011;7285;50.894;5.462;2024-03-29T09:45:02;0.80;;;0.80;;
14400;SDS011;7285;50.894;5.462;2024-03-29T09:47:31;0.60;;;0.60;;
14400;SDS011;7285;50.894;5.462;2024-03-29T09:50:02;0.60;;;0.60;;
14400;SDS011;7285;50.894;5.462;2024-03-29T09:52:30;0.50;;;0.50;;
14400;SDS011;7285;50.894;5.462;2024-03-29T09:54:58;8.10;;;0.63;;
14400;SDS011;7285;50.894;5.462;2024-03-29T09:57:27;0.50;;;0.50;;
14400;SDS011;7285;50.894;5.462;2024-03-29T09:59:55;0.50;;;0.50;;
14400;SDS011;7285;50.894;5.462;2024-03-29T10:02:23;0.60;;;0.60;;
14400;SDS011;7285;50.894;5.462;2024-03-29T10:04:55;0.60;;;0.60;;
14400;SDS011;7285;50.894;5.462;2024-03-29T10:07:25;0.50;;;0.50;;
14400;SDS011;7285;50.894;5.462;2024-03-29T10:09:54;0.50;;;0.50;;
14400;SDS011;7285;50.894;5.462;2024-03-29T10:12:23;0.60;;;0.60;;
14400;SDS011;7285;50.894;5.462;2024-03-29T10:14:50;0.50;;;0.50;;
14400;SDS011;7285;50.894;5.462;2024-03-29T10:17:20;0.73;;;0.73;;
14400;SDS011;7285;50.894;5.462;2024-03-29T10:19:47;0.57;;;0.57;;
14400;SDS011;7285;50.894;5.462;2024-03-29T10:22:14;0.83;;;0.67;;
14400;SDS011;7285;50.894;5.462;2024-03-29T10:24:43;0.57;;;0.57;;
14400;SDS011;7285;50.894;5.462;2024-03-29T10:27:10;1.03;;;0.63;;
14400;SDS011;7285;50.894;5.462;2024-03-29T10:29:37;0.70;;;0.70;;
14400;SDS011;7285;50.894;5.462;2024-03-29T10:32:06;0.60;;;0.60;;
14400;SDS011;7285;50.894;5.462;2024-03-29T10:34:34;0.80;;;0.80;;
14400;SDS011;7285;50.894;5.462;2024-03-29T10:37:03;0.60;;;0.60;;
14400;SDS011;7285;50.894;5.462;2024-03-29T10:39:30;1.33;;;0.93;;
14400;SDS011;7285;50.894;5.462;2024-03-29T10:42:00;0.90;;;0.90;;
14400;SDS011;7285;50.894;5.462;2024-03-29T10:44:28;0.40;;;0.40;;
14400;SDS011;7285;50.894;5.462;2024-03-29T10:46:56;0.50;;;0.50;;
14400;SDS011;7285;50.894;5.462;2024-03-29T10:49:24;0.70;;;0.70;;
14400;SDS011;7285;50.894;5.462;2024-03-29T10:51:51;0.50;;;0.50;;
14400;SDS011;7285;50.894;5.462;2024-03-29T10:54:22;0.50;;;0.50;;
14400;SDS011;7285;50.894;5.462;2024-03-29T10:56:52;0.40;;;0.40;;
14400;SDS011;7285;50.894;5.462;2024-03-29T10:59:28;0.67;;;0.67;;
14400;SDS011;7285;50.894;5.462;2024-03-29T11:02:00;0.60;;;0.60;;
14400;SDS011;7285;50.894;5.462;2024-03-29T11:04:33;0.30;;;0.30;;
14400;SDS011;7285;50.894;5.462;2024-03-29T11:07:04;0.60;;;0.60;;
14400;SDS011;7285;50.894;5.462;2024-03-29T11:09:37;0.60;;;0.60;;
14400;SDS011;7285;50.894;5.462;2024-03-29T11:12:05;0.40;;;0.40;;
14400;SDS011;7285;50.894;5.462;2024-03-29T11:14:40;0.40;;;0.40;;
14400;SDS011;7285;50.894;5.462;2024-03-29T11:17:12;0.40;;;0.40;;
14400;SDS011;7285;50.894;5.462;2024-03-29T11:19:39;0.40;;;0.40;;
14400;SDS011;7285;50.894;5.462;2024-03-29T11:22:07;0.50;;;0.50;;
14400;SDS011;7285;50.894;5.462;2024-03-29T11:24:34;0.50;;;0.50;;
14400;SDS011;7285;50.894;5.462;2024-03-29T11:27:07;0.50;;;0.50;;
14400;SDS011;7285;50.894;5.462;2024-03-29T11:29:35;0.70;;;0.70;;
14400;SDS011;7285;50.894;5.462;2024-03-29T11:32:08;0.40;;;0.40;;
14400;SDS011;7285;50.894;5.462;2024-03-29T11:34:42;0.53;;;0.53;;
14400;SDS011;7285;50.894;5.462;2024-03-29T11:37:11;0.50;;;0.50;;
14400;SDS011;7285;50.894;5.462;2024-03-29T11:39:38;0.93;;;0.70;;
14400;SDS011;7285;50.894;5.462;2024-03-29T11:42:06;0.60;;;0.60;;
14400;SDS011;7285;50.894;5.462;2024-03-29T11:44:33;0.60;;;0.60;;
14400;SDS011;7285;50.894;5.462;2024-03-29T11:47:02;0.60;;;0.60;;
14400;SDS011;7285;50.894;5.462;2024-03-29T11:49:33;0.50;;;0.50;;
14400;SDS011;7285;50.894;5.462;2024-03-29T11:52:03;0.50;;;0.50;;
14400;SDS011;7285;50.894;5.462;2024-03-29T11:54:38;0.80;;;0.80;;
14400;SDS011;7285;50.894;5.462;2024-03-29T11:57:05;0.40;;;0.40;;
14400;SDS011;7285;50.894;5.462;2024-03-29T11:59:32;0.40;;;0.40;;
14400;SDS011;7285;50.894;5.462;2024-03-29T12:01:59;0.50;;;0.50;;
14400;SDS011;7285;50.894;5.462;2024-03-29T12:04:28;0.40;;;0.40;;
14400;SDS011;7285;50.894;5.462;2024-03-29T12:06:55;0.60;;;0.60;;
14400;SDS011;7285;50.894;5.462;2024-03-29T12:09:22;0.50;;;0.50;;
14400;SDS011;7285;50.894;5.462;2024-03-29T12:11:49;0.30;;;0.30;;
14400;SDS011;7285;50.894;5.462;2024-03-29T12:14:16;0.57;;;0.57;;
14400;SDS011;7285;50.894;5.462;2024-03-29T12:16:43;0.50;;;0.50;;
14400;SDS011;7285;50.894;5.462;2024-03-29T12:19:22;0.47;;;0.47;;
14400;SDS011;7285;50.894;5.462;2024-03-29T12:21:50;0.40;;;0.40;;
14400;SDS011;7285;50.894;5.462;2024-03-29T12:24:17;4.20;;;1.27;;
14400;SDS011;7285;50.894;5.462;2024-03-29T12:26:44;0.40;;;0.40;;
14400;SDS011;7285;50.894;5.462;2024-03-29T12:29:12;0.50;;;0.50;;
14400;SDS011;7285;50.894;5.462;2024-03-29T12:31:40;0.40;;;0.40;;
14400;SDS011;7285;50.894;5.462;2024-03-29T12:34:07;0.40;;;0.40;;
14400;SDS011;7285;50.894;5.462;2024-03-29T12:36:35;0.40;;;0.40;;
14400;SDS011;7285;50.894;5.462;2024-03-29T12:39:02;0.40;;;0.40;;
14400;SDS011;7285;50.894;5.462;2024-03-29T12:41:30;0.37;;;0.37;;
14400;SDS011;7285;50.894;5.462;2024-03-29T12:44:00;0.40;;;0.40;;
14400;SDS011;7285;50.894;5.462;2024-03-29T12:46:27;0.40;;;0.40;;
14400;SDS011;7285;50.894;5.462;2024-03-29T12:48:57;0.60;;;0.60;;
14400;SDS011;7285;50.894;5.462;2024-03-29T12:51:26;0.40;;;0.40;;
14400;SDS011;7285;50.894;5.462;2024-03-29T12:53:55;0.50;;;0.50;;
14400;SDS011;7285;50.894;5.462;2024-03-29T12:56:28;0.30;;;0.30;;
14400;SDS011;7285;50.894;5.462;2024-03-29T12:58:55;0.47;;;0.47;;
14400;SDS011;7285;50.894;5.462;2024-03-29T13:01:22;0.33;;;0.33;;
14400;SDS011;7285;50.894;5.462;2024-03-29T13:03:50;0.30;;;0.30;;
14400;SDS011;7285;50.894;5.462;2024-03-29T13:06:17;0.50;;;0.50;;
14400;SDS011;7285;50.894;5.462;2024-03-29T13:08:44;0.50;;;0.50;;
14400;SDS011;7285;50.894;5.462;2024-03-29T13:11:12;0.50;;;0.50;;
14400;SDS011;7285;50.894;5.462;2024-03-29T13:13:39;0.50;;;0.50;;
14400;SDS011;7285;50.894;5.462;2024-03-29T13:16:06;0.60;;;0.60;;
14400;SDS011;7285;50.894;5.462;2024-03-29T13:18:33;0.50;;;0.50;;
14400;SDS011;7285;50.894;5.462;2024-03-29T13:21:00;2.37;;;0.57;;
14400;SDS011;7285;50.894;5.462;2024-03-29T13:23:27;0.30;;;0.30;;
14400;SDS011;7285;50.894;5.462;2024-03-29T13:25:57;0.50;;;0.50;;
14400;SDS011;7285;50.894;5.462;2024-03-29T13:28:26;0.40;;;0.40;;
14400;SDS011;7285;50.894;5.462;2024-03-29T13:30:53;0.30;;;0.30;;
14400;SDS011;7285;50.894;5.462;2024-03-29T13:33:21;0.40;;;0.40;;
14400;SDS011;7285;50.894;5.462;2024-03-29T13:35:50;0.40;;;0.40;;
14400;SDS011;7285;50.894;5.462;2024-03-29T13:38:18;0.50;;;0.50;;
14400;SDS011;7285;50.894;5.462;2024-03-29T13:40:48;0.50;;;0.50;;
14400;SDS011;7285;50.894;5.462;2024-03-29T13:43:15;0.50;;;0.50;;
14400;SDS011;7285;50.894;5.462;2024-03-29T13:45:43;0.40;;;0.40;;
14400;SDS011;7285;50.894;5.462;2024-03-29T13:48:10;0.50;;;0.50;;
14400;SDS011;7285;50.894;5.462;2024-03-29T13:50:37;0.40;;;0.40;;
14400;SDS011;7285;50.894;5.462;2024-03-29T13:53:04;0.50;;;0.50;;
14400;SDS011;7285;50.894;5.462;2024-03-29T13:55:31;0.30;;;0.30;;
14400;SDS011;7285;50.894;5.462;2024-03-29T13:57:58;0.50;;;0.50;;
14400;SDS011;7285;50.894;5.462;2024-03-29T14:00:25;0.40;;;0.40;;
14400;SDS011;7285;50.894;5.462;2024-03-29T14:02:53;0.40;;;0.40;;
14400;SDS011;7285;50.894;5.462;2024-03-29T14:05:21;0.50;;;0.50;;
14400;SDS011;7285;50.894;5.462;2024-03-29T14:07:48;0.40;;;0.40;;
14400;SDS011;7285;50.894;5.462;2024-03-29T14:10:15;0.47;;;0.47;;
14400;SDS011;7285;50.894;5.462;2024-03-29T14:12:43;0.40;;;0.40;;
14400;SDS011;7285;50.894;5.462;2024-03-29T14:15:10;0.50;;;0.50;;
14400;SDS011;7285;50.894;5.462;2024-03-29T14:17:37;0.40;;;0.40;;
14400;SDS011;7285;50.894;5.462;2024-03-29T14:20:07;0.50;;;0.50;;
14400;SDS011;7285;50.894;5.462;2024-03-29T14:22:35;0.50;;;0.50;;
14400;SDS011;7285;50.894;5.462;2024-03-29T14:25:02;0.60;;;0.60;;
14400;SDS011;7285;50.894;5.462;2024-03-29T14:27:30;0.50;;;0.50;;
14400;SDS011;7285;50.894;5.462;2024-03-29T14:29:58;0.50;;;0.50;;
14400;SDS011;7285;50.894;5.462;2024-03-29T14:32:25;0.50;;;0.50;;
14400;SDS011;7285;50.894;5.462;2024-03-29T14:34:52;0.40;;;0.40;;
14400;SDS011;7285;50.894;5.462;2024-03-29T14:37:20;0.40;;;0.40;;
14400;SDS011;7285;50.894;5.462;2024-03-29T14:39:48;0.80;;;0.70;;
14400;SDS011;7285;50.894;5.462;2024-03-29T14:42:15;0.37;;;0.37;;
14400;SDS011;7285;50.894;5.462;2024-03-29T14:44:47;0.40;;;0.40;;
14400;SDS011;7285;50.894;5.462;2024-03-29T14:47:14;0.40;;;0.40;;
14400;SDS011;7285;50.894;5.462;2024-03-29T14:49:42;0.43;;;0.43;;
14400;SDS011;7285;50.894;5.462;2024-03-29T14:52:09;0.40;;;0.40;;
14400;SDS011;7285;50.894;5.462;2024-03-29T14:54:37;0.43;;;0.43;;
14400;SDS011;7285;50.894;5.462;2024-03-29T14:57:05;0.50;;;0.50;;
14400;SDS011;7285;50.894;5.462;2024-03-29T14:59:32;0.40;;;0.40;;
14400;SDS011;7285;50.894;5.462;2024-03-29T15:01:59;0.77;;;0.60;;
14400;SDS011;7285;50.894;5.462;2024-03-29T15:04:26;0.40;;;0.40;;